Le Mars, IA

8:22 PM CDT on May 25, 2017 (GMT -0500)
Le Mars Municipal

Weather History for KLRJ - April, 2013

Change the Weather History Date:

Wednesday, April 17, 2013

  Actual Average Record
Temperature  
Mean Temperature 35 °F -  
Max Temperature 37 °F 66 °F 87 °F (1985)
Min Temperature 33 °F 39 °F 19 °F (1997)
Degree Days  
Heating Degree Days 30    
Moisture  
Dew Point 32 °F    
Average Humidity 86    
Maximum Humidity 100    
Minimum Humidity 70    
Precipitation  
Precipitation 0.44 in - - ()
Sea Level Pressure  
Sea Level Pressure 30.04 in    
Wind  
Wind Speed 13 mph (NE)    
Max Wind Speed 18 mph    
Max Gust Speed 28 mph    
Visibility 6 miles    
Events Rain , Snow    
Averages and records for this station are not official NWS values.
T = Trace of Precipitation, MM = Missing Value Source: NWS Daily Summary

Daily Weather History Graph

Daily Weather History Graph

Search for Another Location

Airport or City:

Trip Planner

Search our weather history database for the weather conditions in past years. The results will help you decide how hot, cold, wet, or windy it might be!

Date:

Astronomy

Apr. 17, 2013 Rise Set
Actual Time 6:39 AM CDT 8:09 PM CDT
Civil Twilight 6:10 AM CDT 8:39 PM CDT
Nautical Twilight 5:34 AM CDT 9:15 PM CDT
Astronomical Twilight 4:56 AM CDT 9:53 PM CDT
Moon 11:51 AM CDT (4/17) 1:51 AM CDT (4/17)
Length of Visible Light 14h 29m
Length of Day
13h 30m
Waxing Crescent, 42% of the Moon is Illuminated
Apr 17
Waxing Crescent
Apr 18
First Quarter
Apr 25
Full
May 2
Last Quarter
May 9
New

Hourly Weather History & Observations

Time (CDT) Temp. Windchill Dew Point Humidity Pressure Visibility Wind Dir Wind Speed Gust Speed Precip Events Conditions
12:15 AM 37.4 °F 28.5 °F 30.2 °F 75% 30.23 in 10.0 mi NE 15.0 mph 18.4 mph N/A   Overcast
12:35 AM 37.4 °F 28.9 °F 28.4 °F 70% 30.23 in 10.0 mi NE 13.8 mph 18.4 mph N/A   Overcast
12:55 AM 37.4 °F 29.3 °F 30.2 °F 75% 30.23 in 10.0 mi NE 12.7 mph 17.3 mph N/A   Overcast
1:15 AM 37.4 °F 29.8 °F 30.2 °F 75% 30.23 in 10.0 mi NE 11.5 mph 19.6 mph N/A   Overcast
1:35 AM 37.4 °F 29.3 °F 28.4 °F 70% 30.23 in 10.0 mi NE 12.7 mph - N/A   Overcast
1:55 AM 37.4 °F 30.3 °F 28.4 °F 70% 30.23 in 10.0 mi ENE 10.4 mph 16.1 mph N/A   Overcast
2:15 AM 37.4 °F 28.9 °F 28.4 °F 70% 30.23 in 10.0 mi NE 13.8 mph - N/A   Overcast
2:35 AM 37.4 °F 29.3 °F 28.4 °F 70% 30.21 in 10.0 mi NE 12.7 mph 18.4 mph N/A   Overcast
2:55 AM 35.6 °F 27.1 °F 28.4 °F 75% 30.20 in 10.0 mi NE 12.7 mph 20.7 mph N/A   Overcast
3:15 AM 35.6 °F 27.1 °F 28.4 °F 75% 30.18 in 10.0 mi NE 12.7 mph - N/A   Overcast
3:35 AM 35.6 °F 26.6 °F 28.4 °F 75% 30.16 in 10.0 mi NE 13.8 mph 18.4 mph N/A   Overcast
3:55 AM 37.4 °F 29.3 °F 28.4 °F 70% 30.14 in 10.0 mi NE 12.7 mph 18.4 mph N/A   Overcast
4:15 AM 37.4 °F 29.3 °F 28.4 °F 70% 30.14 in 10.0 mi NE 12.7 mph 19.6 mph N/A   Overcast
4:35 AM 37.4 °F 28.9 °F 28.4 °F 70% 30.16 in 10.0 mi NE 13.8 mph 17.3 mph N/A   Overcast
4:55 AM 37.4 °F 29.3 °F 28.4 °F 70% 30.16 in 10.0 mi NE 12.7 mph - N/A   Overcast
5:15 AM 37.4 °F 29.8 °F 28.4 °F 70% 30.19 in 10.0 mi NE 11.5 mph - N/A   Overcast
5:35 AM 37.4 °F 28.2 °F 28.4 °F 70% 30.16 in 10.0 mi NE 16.1 mph - N/A   Overcast
5:55 AM 35.6 °F 25.2 °F 28.4 °F 75% 30.07 in 10.0 mi NE 18.4 mph 27.6 mph N/A   Overcast
6:15 AM 35.6 °F 26.6 °F 28.4 °F 75% 30.14 in 10.0 mi NE 13.8 mph 20.7 mph N/A   Overcast
6:35 AM 35.6 °F 25.9 °F 28.4 °F 75% 30.10 in 10.0 mi NE 16.1 mph - N/A Rain Light Rain
6:55 AM 35.6 °F 29.9 °F 30.2 °F 81% 30.18 in 5.0 mi North 6.9 mph - 0.02 in Rain Rain
7:15 AM 33.8 °F 27.0 °F 30.2 °F 87% 30.16 in 3.0 mi NNE 8.1 mph - 0.03 in Snow Light Snow
7:35 AM 33.8 °F 25.8 °F 30.2 °F 87% 30.17 in 2.5 mi NE 10.4 mph - 0.05 in Snow Light Snow
7:55 AM 33.8 °F 23.5 °F 30.2 °F 87% 30.13 in 2.5 mi NE 16.1 mph 20.7 mph 0.09 in Snow Light Snow
8:15 AM 33.8 °F 24.3 °F 30.2 °F 87% 30.10 in 3.0 mi NE 13.8 mph 23.0 mph 0.09 in Snow Snow
8:35 AM 33.8 °F 24.3 °F 32.0 °F 93% 30.07 in 4.0 mi ENE 13.8 mph 24.2 mph 0.15 in Rain Rain
9:15 AM 33.8 °F 25.8 °F 32.0 °F 93% 30.07 in 5.0 mi NE 10.4 mph 16.1 mph 0.01 in Rain Light Rain
9:35 AM 33.8 °F 25.8 °F 32.0 °F 93% 30.05 in 7.0 mi NE 10.4 mph 17.3 mph 0.02 in Rain Light Rain
9:55 AM 33.8 °F 24.8 °F 32.0 °F 93% 30.04 in 10.0 mi NE 12.7 mph 19.6 mph 0.02 in   Overcast
10:15 AM 35.6 °F 28.0 °F 32.0 °F 87% 30.07 in 10.0 mi NE 10.4 mph 16.1 mph N/A   Overcast
10:35 AM 35.6 °F 27.5 °F 32.0 °F 87% 30.06 in 3.0 mi NNE 11.5 mph 17.3 mph N/A   Drizzle
10:55 AM 33.8 °F 26.4 °F 32.0 °F 93% 30.09 in 1.8 mi NNE 9.2 mph - N/A Rain Rain
11:15 AM 33.8 °F 27.0 °F 33.8 °F 100% 30.08 in 1.5 mi NNE 8.1 mph - 0.02 in Rain Rain
11:35 AM 35.6 °F 28.0 °F 33.8 °F 93% 30.07 in 1.8 mi NNE 10.4 mph - 0.02 in   Light Drizzle
11:55 AM 35.6 °F 28.0 °F 33.8 °F 93% 30.05 in 1.8 mi NE 10.4 mph 16.1 mph 0.03 in   Light Drizzle
12:15 PM 35.6 °F 26.6 °F 33.8 °F 93% 30.01 in 1.8 mi NNE 13.8 mph - N/A   Overcast
12:35 PM 35.6 °F 26.6 °F 33.8 °F 93% 30.00 in 3.0 mi NNE 13.8 mph 18.4 mph N/A   Overcast
12:55 PM 37.4 °F 28.2 °F 35.6 °F 93% 29.99 in 4.0 mi NE 16.1 mph 21.9 mph N/A   Overcast
1:15 PM 37.4 °F 28.2 °F 33.8 °F 87% 29.99 in 5.0 mi NE 16.1 mph 21.9 mph N/A   Overcast
1:35 PM 37.4 °F 28.5 °F 33.8 °F 87% 29.98 in 10.0 mi NE 15.0 mph 20.7 mph N/A   Overcast
1:55 PM 37.4 °F 27.8 °F 33.8 °F 87% 29.98 in 7.0 mi NE 17.3 mph 23.0 mph N/A   Overcast
2:15 PM 37.4 °F 28.5 °F 35.6 °F 93% 29.96 in 2.5 mi NE 15.0 mph 21.9 mph N/A   Light Drizzle
2:35 PM 37.4 °F 28.5 °F 35.6 °F 93% 29.94 in 2.0 mi NE 15.0 mph 24.2 mph N/A Rain Light Rain
2:55 PM 37.4 °F 27.8 °F 35.6 °F 93% 29.93 in 4.0 mi NE 17.3 mph 23.0 mph N/A   Overcast
3:35 PM 37.4 °F 29.3 °F 35.6 °F 93% 29.95 in 3.0 mi NE 12.7 mph 19.6 mph N/A   Light Drizzle
3:55 PM 37.4 °F 28.9 °F 35.6 °F 93% 29.93 in 2.5 mi NE 13.8 mph 19.6 mph N/A   Drizzle
4:15 PM 37.4 °F 28.2 °F 35.6 °F 93% 29.90 in 2.5 mi NE 16.1 mph 21.9 mph 0.01 in Rain Rain
4:35 PM 37.4 °F 29.3 °F 35.6 °F 93% 29.91 in 4.0 mi NE 12.7 mph 23.0 mph 0.01 in Rain Light Rain
4:55 PM 37.4 °F 29.3 °F 35.6 °F 93% 29.90 in 5.0 mi NE 12.7 mph 21.9 mph 0.01 in   Light Drizzle
5:15 PM 37.4 °F 28.9 °F 35.6 °F 93% 29.89 in 4.0 mi NE 13.8 mph 19.6 mph N/A Rain Light Rain
5:35 PM 37.4 °F 28.9 °F 35.6 °F 93% 29.88 in 3.0 mi NNE 13.8 mph 21.9 mph N/A   Drizzle
5:55 PM 37.4 °F 29.8 °F 35.6 °F 93% 29.92 in 4.0 mi NE 11.5 mph - N/A Rain Light Rain
6:15 PM 37.4 °F 29.3 °F 35.6 °F 93% 29.91 in 4.0 mi NNE 12.7 mph - 0.01 in Rain Rain
6:35 PM 37.4 °F 33.8 °F 35.6 °F 93% 29.98 in 2.5 mi North 4.6 mph - 0.01 in   Drizzle
6:55 PM 35.6 °F 28.0 °F 33.8 °F 93% 29.90 in 3.0 mi NNE 10.4 mph 16.1 mph 0.10 in   Overcast
7:15 PM 35.6 °F 28.6 °F 33.8 °F 93% 29.89 in 4.0 mi NNE 9.2 mph - 0.01 in Rain Light Rain
7:35 PM 35.6 °F 28.0 °F 33.8 °F 93% 29.89 in 7.0 mi NNE 10.4 mph 17.3 mph 0.02 in Rain Light Rain
7:55 PM 35.6 °F 26.6 °F 33.8 °F 93% 29.88 in 5.0 mi North 13.8 mph 17.3 mph 0.02 in   Light Drizzle
8:15 PM 33.8 °F 24.3 °F 33.8 °F 100% 29.89 in 4.0 mi NNE 13.8 mph 18.4 mph N/A   Overcast
8:35 PM 35.6 °F 26.6 °F 33.8 °F 93% 29.90 in 7.0 mi North 13.8 mph 18.4 mph N/A   Overcast
8:55 PM 35.6 °F 25.9 °F 33.8 °F 93% 29.91 in 10.0 mi North 16.1 mph 20.7 mph N/A   Overcast
9:15 PM 35.6 °F 26.6 °F 32.0 °F 87% 29.93 in 10.0 mi North 13.8 mph 23.0 mph N/A   Overcast
9:55 PM 35.6 °F 26.2 °F 32.0 °F 87% 29.94 in 7.0 mi North 15.0 mph - N/A   Overcast
10:15 PM 35.6 °F 26.6 °F 32.0 °F 87% 29.93 in 4.0 mi North 13.8 mph 19.6 mph N/A Rain Light Rain
10:35 PM 33.8 °F 23.2 °F 33.8 °F 100% 29.91 in 4.0 mi North 17.3 mph 20.7 mph N/A   Light Drizzle
10:55 PM 33.8 °F 23.2 °F 33.8 °F 100% 29.89 in 7.0 mi North 17.3 mph 23.0 mph N/A   Overcast
11:15 PM 33.8 °F 23.5 °F 32.0 °F 93% 29.89 in 10.0 mi North 16.1 mph 21.9 mph N/A   Overcast
11:35 PM 33.8 °F 23.2 °F 32.0 °F 93% 29.89 in 10.0 mi North 17.3 mph 20.7 mph N/A   Overcast
11:55 PM 35.6 °F 25.9 °F 32.0 °F 87% 29.88 in 10.0 mi NNE 16.1 mph 21.9 mph N/A   Overcast